Tintina, Argentina
Current Conditions -  °F | °C
As of 3:00 PM on Thursday 23 Oct 2014 (Local Time) from SANT Reporting Station
Scattered Clouds Scattered Clouds  
Wind Chill: 91°   Ceiling: Unl
Heat Index: 91°   Visibility: 4mi
Dew Point: 61°   Wind: 12mph
Humidity: 36%   Direction: 180°S
Pressure: 29.91"   Gusts: NA
Location:  27.03°S, 62.72°W
Report Text: SANT 231800Z 18010KT 7000 SCT040TCU SCT100 33/16 Q1013
Loading
Personal Weather Stations






























Interactive Weather Map
Tropical Storm Tracking
New forecast layout! Learn more

10-Day Weather Forecast

Advertisements
Track Severe Weather on mobile